Time;durP1;ratioP1;P1;durP2;ratioP2;P2;SDS_P1;SDS_P2;PMS_P1;PMS_P2;Temp;Humidity;BMP_temperature;BMP_pressure;BME280_temperature;BME280_humidity;BME280_pressure;Samples;Min_cycle;Max_cycle;Signal;HPM_P1;HPM_P2
2021/10/22 00:00:29;;;;;;;1.63;1.27;;;10.50;99.90;;;;;;5032827;28;20225;-50
2021/10/22 00:02:55;;;;;;;5.20;1.80;;;10.50;99.90;;;;;;5033714;28;20262;-48
2021/10/22 00:05:21;;;;;;;2.70;1.67;;;10.60;99.90;;;;;;5033689;28;20576;-47
2021/10/22 00:07:46;;;;;;;1.50;1.40;;;10.70;99.90;;;;;;5033615;28;20453;-48
2021/10/22 00:10:12;;;;;;;3.03;1.87;;;10.60;99.90;;;;;;5024478;28;20406;-47
2021/10/22 00:12:38;;;;;;;2.73;1.80;;;10.50;99.90;;;;;;5013809;28;20203;-53
2021/10/22 00:15:06;;;;;;;2.83;1.50;;;10.50;99.90;;;;;;5013614;28;20634;-54
2021/10/22 00:17:31;;;;;;;2.30;2.10;;;10.50;99.90;;;;;;5013577;28;20293;-54
2021/10/22 00:19:57;;;;;;;1.80;1.60;;;10.50;99.90;;;;;;5013651;28;20439;-54
2021/10/22 00:22:23;;;;;;;2.10;1.90;;;10.50;99.90;;;;;;5013787;28;20214;-52
2021/10/22 00:24:48;;;;;;;1.83;1.73;;;10.40;99.90;;;;;;5013377;28;20446;-54
2021/10/22 00:27:14;;;;;;;5.40;2.30;;;10.20;99.90;;;;;;5013628;28;20195;-52
2021/10/22 00:29:40;;;;;;;4.43;1.87;;;10.00;99.90;;;;;;5027246;28;20257;-51
2021/10/22 00:32:05;;;;;;;2.27;2.07;;;9.80;99.90;;;;;;5034495;28;20208;-51
2021/10/22 00:34:31;;;;;;;2.50;1.77;;;9.80;99.90;;;;;;5034338;28;20202;-53
2021/10/22 00:36:58;;;;;;;2.87;1.90;;;9.70;99.90;;;;;;5034633;28;20191;-51
2021/10/22 00:39:24;;;;;;;2.33;1.63;;;9.70;99.90;;;;;;5035595;28;20164;-53
2021/10/22 00:41:50;;;;;;;1.63;1.50;;;9.70;99.90;;;;;;5038516;28;20413;-51
2021/10/22 00:44:16;;;;;;;3.53;1.60;;;9.60;99.90;;;;;;5036205;28;20460;-53
2021/10/22 00:46:42;;;;;;;2.53;1.50;;;9.70;99.90;;;;;;5034181;28;20431;-56
2021/10/22 00:49:09;;;;;;;3.23;1.63;;;9.70;99.90;;;;;;5033719;28;20487;-56
2021/10/22 00:51:36;;;;;;;2.20;1.80;;;9.70;99.90;;;;;;5033705;28;20174;-56
2021/10/22 00:54:06;;;;;;;3.43;2.10;;;9.80;99.90;;;;;;5034167;28;20458;-51
2021/10/22 00:56:34;;;;;;;2.27;1.60;;;9.80;99.90;;;;;;5035904;28;20516;-55
2021/10/22 00:59:00;;;;;;;2.63;1.50;;;9.80;99.90;;;;;;5038128;28;20443;-50
2021/10/22 01:01:25;;;;;;;3.70;1.80;;;9.90;99.90;;;;;;5038152;28;20409;-48
2021/10/22 01:03:51;;;;;;;4.40;2.00;;;10.00;99.90;;;;;;5038910;28;20520;-47
2021/10/22 01:06:17;;;;;;;4.80;1.57;;;10.00;99.90;;;;;;5039454;28;20205;-47
2021/10/22 01:08:43;;;;;;;3.53;1.70;;;10.20;99.90;;;;;;5037388;28;20202;-53
2021/10/22 01:11:09;;;;;;;1.73;1.40;;;10.00;99.90;;;;;;5038049;28;20177;-53
2021/10/22 01:13:36;;;;;;;3.37;1.83;;;10.10;99.90;;;;;;5048803;28;20452;-54
2021/10/22 01:16:01;;;;;;;4.67;1.90;;;10.20;99.90;;;;;;5036511;28;20945;-57
2021/10/22 01:18:27;;;;;;;3.97;1.87;;;10.30;99.90;;;;;;5037602;28;20398;-52
2021/10/22 01:21:03;;;;;;;2.03;1.60;;;10.20;99.90;;;;;;5038581;28;20174;-48
2021/10/22 01:23:29;;;;;;;3.10;1.60;;;10.30;99.90;;;;;;5037553;28;20176;-48
2021/10/22 01:25:55;;;;;;;2.70;1.80;;;10.00;99.90;;;;;;5038088;28;20430;-49
2021/10/22 01:28:21;;;;;;;3.00;1.93;;;10.00;99.90;;;;;;5036339;28;20470;-49
2021/10/22 01:30:48;;;;;;;3.10;2.00;;;10.00;99.90;;;;;;5017371;28;20417;-49
2021/10/22 01:33:18;;;;;;;4.00;1.47;;;10.10;99.90;;;;;;5016022;28;20974;-49
2021/10/22 01:35:45;;;;;;;2.40;2.00;;;10.30;99.90;;;;;;5015961;28;20553;-49
2021/10/22 01:38:15;;;;;;;5.33;2.10;;;10.20;99.90;;;;;;5016044;28;20896;-50
2021/10/22 01:40:42;;;;;;;2.97;2.00;;;10.20;99.90;;;;;;5016855;28;20915;-49
2021/10/22 01:43:08;;;;;;;2.53;1.70;;;10.30;99.90;;;;;;5016065;28;20438;-51
2021/10/22 01:45:34;;;;;;;3.50;2.07;;;10.40;99.90;;;;;;5015779;28;20473;-50
2021/10/22 01:47:59;;;;;;;3.27;1.60;;;10.50;99.90;;;;;;5033533;28;20496;-50
2021/10/22 01:50:25;;;;;;;2.53;1.63;;;10.50;99.90;;;;;;5036239;28;20643;-56
2021/10/22 01:52:51;;;;;;;2.17;1.63;;;10.40;99.90;;;;;;5035705;28;20687;-54
2021/10/22 01:55:17;;;;;;;2.20;1.70;;;10.40;99.90;;;;;;5035429;28;20493;-56
2021/10/22 01:57:42;;;;;;;3.37;1.80;;;10.40;99.90;;;;;;5035598;28;20163;-55
2021/10/22 02:00:09;;;;;;;3.00;1.57;;;10.30;99.90;;;;;;5035590;28;20230;-56
2021/10/22 02:02:34;;;;;;;1.70;1.57;;;10.20;99.90;;;;;;5035368;28;20217;-57
2021/10/22 02:05:00;;;;;;;2.40;1.90;;;10.30;99.90;;;;;;5035144;28;20801;-55
2021/10/22 02:07:25;;;;;;;4.50;1.90;;;10.30;99.90;;;;;;5035161;28;20191;-55
2021/10/22 02:09:51;;;;;;;2.93;1.40;;;10.10;99.90;;;;;;5035048;28;20174;-57
2021/10/22 02:12:16;;;;;;;3.37;2.13;;;10.20;99.90;;;;;;5035112;28;20175;-56
2021/10/22 02:14:42;;;;;;;3.23;1.87;;;10.30;99.90;;;;;;5035307;28;20192;-55
2021/10/22 02:17:08;;;;;;;3.27;1.77;;;10.20;99.90;;;;;;5029603;28;20262;-58
2021/10/22 02:19:33;;;;;;;4.10;1.90;;;10.20;99.90;;;;;;5033559;28;20693;-56
2021/10/22 02:21:59;;;;;;;2.70;1.60;;;10.10;99.90;;;;;;5035722;28;20202;-55
2021/10/22 02:24:25;;;;;;;4.73;2.33;;;10.00;99.90;;;;;;5034583;28;20191;-57
2021/10/22 02:26:51;;;;;;;4.53;2.10;;;9.90;99.90;;;;;;5035109;28;20247;-56
2021/10/22 02:29:16;;;;;;;5.07;1.80;;;9.80;99.90;;;;;;5034744;28;20217;-57
2021/10/22 02:31:42;;;;;;;2.87;2.10;;;9.70;99.90;;;;;;5034718;28;20177;-55
2021/10/22 02:34:08;;;;;;;3.87;1.73;;;9.60;99.90;;;;;;5034625;28;20225;-54
2021/10/22 02:36:33;;;;;;;4.57;1.33;;;9.50;99.90;;;;;;5034539;28;20460;-57
2021/10/22 02:38:59;;;;;;;2.70;1.60;;;9.50;99.90;;;;;;5034440;28;20583;-57
2021/10/22 02:41:25;;;;;;;5.40;2.07;;;9.30;99.90;;;;;;5034620;28;20651;-56
2021/10/22 02:43:50;;;;;;;4.57;2.17;;;9.20;99.90;;;;;;5034667;28;20219;-53
2021/10/22 02:46:16;;;;;;;3.30;1.93;;;9.10;99.90;;;;;;5034267;28;20749;-56
2021/10/22 02:48:43;;;;;;;5.60;2.30;;;9.00;99.90;;;;;;5034721;28;20226;-57
2021/10/22 02:51:08;;;;;;;4.40;2.00;;;9.00;99.90;;;;;;5034413;28;20408;-56
2021/10/22 02:53:34;;;;;;;4.83;1.90;;;9.00;99.90;;;;;;5034348;28;20451;-56
2021/10/22 02:56:00;;;;;;;6.00;1.80;;;9.00;99.90;;;;;;5034543;28;20185;-54
2021/10/22 02:58:25;;;;;;;2.60;2.03;;;8.90;99.90;;;;;;5034416;28;20169;-55
2021/10/22 03:00:51;;;;;;;6.30;2.53;;;8.90;99.90;;;;;;5034034;28;20166;-57
2021/10/22 03:03:16;;;;;;;3.90;1.80;;;8.90;99.90;;;;;;5034074;28;20180;-57
2021/10/22 03:05:42;;;;;;;5.70;2.27;;;8.80;99.90;;;;;;5034168;28;20275;-57
2021/10/22 03:08:08;;;;;;;3.27;2.03;;;8.80;99.90;;;;;;5034124;28;20201;-56
2021/10/22 03:10:34;;;;;;;7.17;2.60;;;8.90;99.90;;;;;;5033948;28;20237;-56
2021/10/22 03:13:01;;;;;;;6.40;2.10;;;8.70;99.90;;;;;;5034276;28;20917;-57
2021/10/22 03:15:26;;;;;;;11.03;2.70;;;8.60;99.90;;;;;;5034516;28;20411;-52
2021/10/22 03:17:52;;;;;;;7.37;2.30;;;8.70;99.90;;;;;;5034128;28;20412;-52
2021/10/22 03:20:18;;;;;;;8.53;2.53;;;8.60;99.90;;;;;;5033757;28;20172;-54
2021/10/22 03:22:43;;;;;;;6.40;2.30;;;8.60;99.90;;;;;;5034030;28;20234;-57
2021/10/22 03:25:09;;;;;;;4.23;2.23;;;8.60;99.90;;;;;;5033687;28;20216;-55
2021/10/22 03:27:35;;;;;;;6.93;2.13;;;8.50;99.90;;;;;;5033973;28;20570;-59
2021/10/22 03:30:02;;;;;;;4.73;2.07;;;8.50;99.90;;;;;;5034177;28;20593;-57
2021/10/22 03:32:32;;;;;;;5.60;2.50;;;8.50;99.90;;;;;;5033634;28;20451;-56
2021/10/22 03:34:58;;;;;;;6.07;2.10;;;8.50;99.90;;;;;;5033929;28;20505;-58
2021/10/22 03:37:23;;;;;;;6.33;2.10;;;8.50;99.90;;;;;;5033812;28;20536;-54
2021/10/22 03:39:49;;;;;;;4.37;2.63;;;8.50;99.90;;;;;;5033495;28;20251;-56
2021/10/22 03:42:14;;;;;;;8.67;2.57;;;8.40;99.90;;;;;;5033747;28;20169;-58
2021/10/22 03:44:40;;;;;;;9.60;2.90;;;8.40;99.90;;;;;;5034402;28;20187;-58
2021/10/22 03:47:06;;;;;;;7.50;2.60;;;8.30;99.90;;;;;;5033420;28;20197;-59
2021/10/22 03:49:31;;;;;;;6.30;2.23;;;8.10;99.90;;;;;;5033383;28;20215;-57
2021/10/22 03:51:57;;;;;;;3.83;2.10;;;8.10;99.90;;;;;;5033410;28;20179;-57
2021/10/22 03:54:23;;;;;;;12.23;3.30;;;8.00;99.90;;;;;;5033146;28;20708;-58
2021/10/22 03:56:48;;;;;;;7.73;2.87;;;8.10;99.90;;;;;;5032047;28;20219;-59
2021/10/22 03:59:16;;;;;;;9.10;2.50;;;8.10;99.90;;;;;;5033893;28;20170;-59
2021/10/22 04:01:42;;;;;;;6.40;2.57;;;8.10;99.90;;;;;;5033703;28;20169;-59
2021/10/22 04:04:08;;;;;;;4.90;1.93;;;8.00;99.90;;;;;;5033485;28;20415;-57
2021/10/22 04:06:34;;;;;;;7.00;2.50;;;8.00;99.90;;;;;;5033174;28;20435;-59
2021/10/22 04:08:59;;;;;;;6.67;2.57;;;8.10;99.90;;;;;;5033198;28;20176;-58
2021/10/22 04:11:25;;;;;;;5.00;2.77;;;8.00;99.90;;;;;;5026478;28;20201;-59
2021/10/22 04:13:50;;;;;;;4.57;2.30;;;8.00;99.90;;;;;;5014343;28;20207;-52
2021/10/22 04:16:16;;;;;;;4.20;2.53;;;8.00;99.90;;;;;;5014490;28;20180;-58
2021/10/22 04:18:41;;;;;;;10.70;3.60;;;8.00;99.90;;;;;;5013708;28;20179;-58
2021/10/22 04:21:07;;;;;;;7.53;2.30;;;7.90;99.90;;;;;;5012931;28;20202;-60
2021/10/22 04:23:33;;;;;;;7.53;2.37;;;7.80;99.90;;;;;;5013516;28;20188;-58
2021/10/22 04:25:58;;;;;;;4.40;3.33;;;7.80;99.90;;;;;;5022694;28;20270;-58
2021/10/22 04:28:24;;;;;;;8.53;3.90;;;7.80;99.90;;;;;;5034975;28;20175;-58
2021/10/22 04:30:49;;;;;;;7.07;3.30;;;7.80;99.90;;;;;;5036796;28;20280;-55
2021/10/22 04:33:15;;;;;;;9.30;4.37;;;7.80;99.90;;;;;;5041767;28;20202;-57
2021/10/22 04:35:41;;;;;;;9.43;4.67;;;7.70;99.90;;;;;;5045953;28;20237;-55
2021/10/22 04:40:42;;;;;;;7.83;4.97;;;7.70;99.90;;;;;;5045646;28;20145;-60
2021/10/22 04:43:11;;;;;;;9.60;5.03;;;7.80;99.90;;;;;;5052711;28;20431;-58
2021/10/22 04:45:38;;;;;;;11.90;5.87;;;7.60;99.90;;;;;;5045676;28;20446;-59
2021/10/22 04:48:07;;;;;;;10.60;5.90;;;7.60;99.90;;;;;;5037248;28;20497;-58
2021/10/22 04:50:34;;;;;;;8.10;4.23;;;7.60;99.90;;;;;;5036722;28;20408;-59
2021/10/22 04:52:59;;;;;;;8.83;3.93;;;7.70;99.90;;;;;;5036961;28;20591;-57
2021/10/22 04:55:28;;;;;;;8.13;4.10;;;7.70;99.90;;;;;;5036262;28;20436;-56
2021/10/22 04:57:53;;;;;;;11.13;4.10;;;7.70;99.90;;;;;;5036696;28;20175;-58
2021/10/22 05:00:20;;;;;;;7.20;4.20;;;7.70;99.90;;;;;;5035139;28;20414;-53
2021/10/22 05:02:47;;;;;;;7.50;3.53;;;7.60;99.90;;;;;;5036475;28;20414;-55
2021/10/22 05:05:14;;;;;;;12.90;4.33;;;7.60;99.90;;;;;;5036359;28;20401;-57
2021/10/22 05:07:40;;;;;;;9.67;3.47;;;7.50;99.90;;;;;;5036649;28;20467;-59
2021/10/22 05:10:07;;;;;;;9.83;4.27;;;7.50;99.90;;;;;;5036119;28;20922;-57
2021/10/22 05:12:32;;;;;;;9.37;3.87;;;7.60;99.90;;;;;;5036283;28;20882;-58
2021/10/22 05:15:00;;;;;;;5.23;3.27;;;7.60;99.90;;;;;;5036432;28;20454;-54
2021/10/22 05:17:27;;;;;;;8.77;3.37;;;7.50;99.90;;;;;;5036361;28;20215;-57
2021/10/22 05:19:53;;;;;;;11.53;3.70;;;7.50;99.90;;;;;;5036508;28;20410;-57
2021/10/22 05:22:19;;;;;;;5.63;3.47;;;7.40;99.90;;;;;;5035457;28;20494;-57
2021/10/22 05:24:45;;;;;;;8.67;3.10;;;7.40;99.90;;;;;;5036172;28;20496;-58
2021/10/22 05:27:11;;;;;;;4.57;2.83;;;7.40;99.90;;;;;;5035983;28;20899;-58
2021/10/22 05:29:36;;;;;;;4.90;3.17;;;7.40;99.90;;;;;;5035790;28;20636;-54
2021/10/22 05:32:03;;;;;;;4.60;3.13;;;7.40;99.90;;;;;;5036178;28;20178;-58
2021/10/22 05:34:29;;;;;;;8.80;3.00;;;7.50;99.90;;;;;;5034667;22;20224;-57
2021/10/22 05:36:54;;;;;;;4.40;2.90;;;7.40;99.90;;;;;;4997304;28;20425;-57
2021/10/22 05:39:20;;;;;;;5.47;3.47;;;7.40;99.90;;;;;;5014878;28;20198;-54
2021/10/22 05:41:47;;;;;;;5.87;3.23;;;7.40;99.90;;;;;;5014396;28;20172;-54
2021/10/22 05:44:20;;;;;;;5.07;2.93;;;7.40;99.90;;;;;;5015539;28;20425;-54
2021/10/22 05:46:46;;;;;;;6.53;3.00;;;7.40;99.90;;;;;;5015422;28;20383;-56
2021/10/22 05:49:12;;;;;;;9.13;3.33;;;7.30;99.90;;;;;;5014052;28;20415;-54
2021/10/22 05:51:38;;;;;;;7.57;3.17;;;7.40;99.90;;;;;;5015836;28;20399;-51
2021/10/22 05:54:04;;;;;;;8.03;3.07;;;7.50;99.90;;;;;;5014211;28;20482;-53
2021/10/22 05:56:29;;;;;;;13.17;4.40;;;7.50;99.90;;;;;;5015311;28;20403;-53
2021/10/22 05:58:55;;;;;;;3.70;2.33;;;7.50;99.90;;;;;;5015537;28;20588;-54
2021/10/22 06:01:22;;;;;;;9.30;3.40;;;7.60;99.90;;;;;;5015793;28;20193;-56
2021/10/22 06:03:47;;;;;;;5.60;3.20;;;7.50;99.90;;;;;;5014602;28;20252;-54
2021/10/22 06:06:13;;;;;;;7.13;3.17;;;7.50;99.90;;;;;;5014988;28;20533;-53
2021/10/22 06:08:39;;;;;;;5.40;3.30;;;7.50;99.90;;;;;;5013644;28;20169;-53
2021/10/22 06:11:10;;;;;;;5.60;3.07;;;7.40;99.90;;;;;;4977740;28;20170;-53
2021/10/22 06:13:37;;;;;;;7.47;3.63;;;7.40;99.90;;;;;;4976337;28;20194;-56
2021/10/22 06:16:03;;;;;;;6.63;4.10;;;7.50;99.90;;;;;;4974836;28;20488;-56
2021/10/22 06:18:28;;;;;;;8.77;3.57;;;7.40;99.90;;;;;;5007929;28;20460;-56
2021/10/22 06:21:00;;;;;;;12.13;3.80;;;7.50;99.90;;;;;;5014875;28;20444;-54
2021/10/22 06:26:10;;;;;;;5.60;2.60;;;7.50;99.90;;;;;;5013769;28;20434;-56
2021/10/22 06:28:35;;;;;;;5.23;2.43;;;7.40;99.90;;;;;;5014778;28;20411;-56
2021/10/22 06:31:01;;;;;;;6.80;3.03;;;7.40;99.90;;;;;;5014517;28;20172;-53
2021/10/22 06:33:27;;;;;;;7.00;3.30;;;7.30;99.90;;;;;;5014018;28;20614;-56
2021/10/22 06:35:54;;;;;;;9.13;2.57;;;7.40;99.90;;;;;;5014294;28;20205;-54
2021/10/22 06:38:20;;;;;;;8.20;3.83;;;7.40;99.90;;;;;;5014357;28;20179;-56
2021/10/22 06:40:46;;;;;;;5.00;3.20;;;7.50;99.90;;;;;;5014305;28;20892;-56
2021/10/22 06:43:11;;;;;;;7.20;3.87;;;7.40;99.90;;;;;;5014517;28;20414;-56
2021/10/22 06:45:37;;;;;;;6.13;2.93;;;7.50;99.90;;;;;;5014399;28;20212;-54
2021/10/22 06:48:03;;;;;;;8.77;3.60;;;7.50;99.90;;;;;;5013762;28;20176;-52
2021/10/22 06:50:29;;;;;;;7.30;2.80;;;7.50;99.90;;;;;;5014443;28;20245;-54
2021/10/22 06:52:54;;;;;;;9.40;3.03;;;7.50;99.90;;;;;;5013924;28;20175;-55
2021/10/22 06:55:20;;;;;;;11.67;3.27;;;7.60;99.90;;;;;;5013315;28;20979;-55
2021/10/22 06:57:46;;;;;;;129.97;74.53;;;7.60;99.90;;;;;;5014056;28;20629;-55
2021/10/22 07:00:12;;;;;;;14.93;7.07;;;7.60;99.90;;;;;;5014433;28;20172;-55
2021/10/22 07:02:51;;;;;;;20.70;10.10;;;7.70;99.90;;;;;;5013897;28;20171;-57
2021/10/22 07:05:34;;;;;;;28.47;13.63;;;7.80;99.90;;;;;;5012742;28;20435;-55
2021/10/22 07:08:01;;;;;;;15.73;6.50;;;7.90;99.90;;;;;;5013736;28;20406;-54
2021/10/22 07:10:31;;;;;;;9.03;4.87;;;7.90;99.90;;;;;;5013373;28;20542;-53
2021/10/22 07:12:58;;;;;;;14.47;4.40;;;8.00;99.90;;;;;;5013974;28;20427;-57
2021/10/22 07:15:25;;;;;;;13.83;3.93;;;8.00;99.90;;;;;;5014161;28;20430;-53
2021/10/22 07:17:52;;;;;;;7.93;3.63;;;8.00;99.90;;;;;;5013297;28;20411;-57
2021/10/22 07:20:18;;;;;;;5.50;2.97;;;8.10;99.90;;;;;;5015088;28;20456;-58
2021/10/22 07:22:51;;;;;;;10.23;4.63;;;8.20;99.90;;;;;;5014137;28;20403;-56
2021/10/22 07:25:19;;;;;;;5.27;3.33;;;8.20;99.90;;;;;;5013700;28;20427;-53
2021/10/22 07:27:46;;;;;;;9.10;3.30;;;8.20;99.90;;;;;;5013859;28;20478;-57
2021/10/22 07:30:11;;;;;;;11.27;4.97;;;8.30;99.90;;;;;;5013688;28;20408;-57
2021/10/22 07:32:37;;;;;;;13.63;8.53;;;8.40;99.90;;;;;;5012835;28;20406;-55
2021/10/22 07:35:04;;;;;;;10.87;3.83;;;8.30;99.90;;;;;;5012974;28;20260;-54
2021/10/22 07:37:30;;;;;;;9.27;3.80;;;8.30;99.90;;;;;;5012155;28;20407;-55
2021/10/22 07:39:57;;;;;;;11.43;4.30;;;8.20;99.90;;;;;;5013702;28;20408;-58
2021/10/22 07:42:26;;;;;;;10.53;3.60;;;8.20;99.90;;;;;;5012195;28;20415;-56
2021/10/22 07:44:54;;;;;;;7.23;3.83;;;8.20;99.90;;;;;;5013672;28;20441;-55
2021/10/22 07:47:21;;;;;;;9.77;4.57;;;8.50;99.90;;;;;;5013135;28;20416;-56
2021/10/22 07:49:49;;;;;;;9.57;4.30;;;8.50;99.90;;;;;;5013266;28;20415;-54
2021/10/22 07:52:17;;;;;;;14.63;4.87;;;8.60;99.90;;;;;;5013467;28;20889;-54
2021/10/22 07:54:44;;;;;;;12.60;4.33;;;8.50;99.90;;;;;;5011764;28;20463;-56
2021/10/22 07:57:09;;;;;;;5.83;3.00;;;8.60;99.90;;;;;;5013223;28;20413;-56
2021/10/22 07:59:35;;;;;;;13.83;3.50;;;8.70;99.90;;;;;;5013368;28;20405;-55
2021/10/22 08:02:01;;;;;;;11.00;3.93;;;8.90;99.90;;;;;;5012991;28;20645;-58
2021/10/22 08:04:26;;;;;;;15.30;3.53;;;8.90;99.90;;;;;;5012817;28;20508;-53
2021/10/22 08:06:52;;;;;;;10.93;3.90;;;8.80;99.90;;;;;;5013735;28;20567;-55
2021/10/22 08:09:18;;;;;;;7.53;3.77;;;8.80;99.90;;;;;;5013026;28;20218;-58
2021/10/22 08:11:43;;;;;;;10.17;3.10;;;8.80;99.90;;;;;;4997402;28;20181;-56
2021/10/22 08:14:09;;;;;;;13.80;3.57;;;8.80;99.90;;;;;;4974321;28;20788;-54
2021/10/22 08:16:35;;;;;;;8.00;3.60;;;8.90;99.90;;;;;;4974390;28;20165;-57
2021/10/22 08:19:01;;;;;;;8.67;3.50;;;8.90;99.90;;;;;;4973901;28;20421;-56
2021/10/22 08:24:05;;;;;;;10.57;4.00;;;8.90;99.90;;;;;;4974698;28;20230;-55
2021/10/22 08:26:31;;;;;;;7.70;3.50;;;9.10;99.90;;;;;;4999608;28;20420;-58
2021/10/22 08:28:57;;;;;;;11.20;3.43;;;9.20;99.90;;;;;;4982857;28;20427;-58
2021/10/22 08:31:23;;;;;;;4.80;2.20;;;9.40;99.90;;;;;;4993529;28;20186;-56
2021/10/22 08:33:48;;;;;;;12.30;4.70;;;9.30;99.90;;;;;;4992462;28;20490;-58
2021/10/22 08:36:14;;;;;;;8.73;3.27;;;9.20;99.90;;;;;;4993161;28;20178;-54
2021/10/22 08:38:40;;;;;;;7.90;3.50;;;9.30;99.90;;;;;;4993495;28;20176;-58
2021/10/22 08:41:12;;;;;;;7.97;2.63;;;9.30;99.90;;;;;;4993596;28;20505;-56
2021/10/22 08:43:40;;;;;;;8.60;3.23;;;9.40;99.90;;;;;;4993166;28;20175;-55
2021/10/22 08:46:12;;;;;;;7.73;3.30;;;9.40;99.90;;;;;;4992577;28;20410;-57
2021/10/22 08:48:38;;;;;;;8.40;3.20;;;9.30;99.90;;;;;;4993052;28;20478;-55
2021/10/22 08:51:05;;;;;;;6.47;2.20;;;9.30;99.90;;;;;;4993214;28;20400;-58
2021/10/22 08:53:31;;;;;;;7.90;2.40;;;9.50;99.90;;;;;;4993364;28;20552;-53
2021/10/22 08:55:58;;;;;;;7.60;3.40;;;9.70;99.90;;;;;;4983821;28;20416;-57
2021/10/22 08:58:24;;;;;;;12.10;3.10;;;9.80;99.90;;;;;;4986440;28;20410;-59
2021/10/22 09:00:50;;;;;;;5.83;2.23;;;9.90;99.90;;;;;;4986706;28;20414;-55
2021/10/22 09:03:20;;;;;;;6.53;2.70;;;9.80;99.90;;;;;;4986416;28;20906;-56
2021/10/22 09:05:59;;;;;;;8.17;2.53;;;9.70;99.90;;;;;;4986700;28;20208;-56
2021/10/22 09:08:37;;;;;;;7.53;2.97;;;9.90;99.90;;;;;;4992237;28;20445;-52
2021/10/22 09:11:04;;;;;;;5.50;2.50;;;10.00;99.90;;;;;;4993002;28;20466;-56
2021/10/22 09:13:34;;;;;;;10.80;2.70;;;10.10;99.90;;;;;;4993358;28;20457;-52
2021/10/22 09:16:22;;;;;;;12.60;2.97;;;10.20;99.90;;;;;;4993294;28;20408;-54
2021/10/22 09:18:50;;;;;;;8.83;2.73;;;10.20;99.90;;;;;;4996285;28;20771;-55
2021/10/22 09:21:25;;;;;;;7.00;2.40;;;10.30;99.90;;;;;;4996356;28;20415;-53
2021/10/22 09:23:53;;;;;;;3.80;2.17;;;10.20;99.90;;;;;;4996491;28;20420;-54
2021/10/22 09:26:27;;;;;;;9.23;3.30;;;10.30;99.90;;;;;;5007714;28;20505;-54
2021/10/22 09:28:54;;;;;;;8.63;2.43;;;10.30;99.90;;;;;;5016044;28;20390;-55
2021/10/22 09:31:22;;;;;;;8.07;2.97;;;10.20;99.90;;;;;;5016097;28;20836;-54
2021/10/22 09:33:56;;;;;;;4.20;1.70;;;10.30;99.90;;;;;;5013718;28;20451;-53
2021/10/22 09:36:40;;;;;;;8.50;2.60;;;10.30;99.90;;;;;;5016039;28;20402;-54
2021/10/22 09:39:22;;;;;;;5.63;1.87;;;10.20;99.90;;;;;;5014598;28;20763;-54
2021/10/22 09:41:55;;;;;;;7.30;2.43;;;10.30;99.90;;;;;;5015542;28;20486;-54
2021/10/22 09:44:31;;;;;;;6.37;2.33;;;10.60;99.90;;;;;;5015561;28;20415;-57
2021/10/22 09:47:06;;;;;;;5.80;2.10;;;10.80;99.90;;;;;;5015794;28;20420;-56
2021/10/22 09:49:35;;;;;;;8.77;3.20;;;10.70;99.90;;;;;;5015147;28;20403;-56
2021/10/22 09:52:03;;;;;;;9.00;2.57;;;10.80;99.90;;;;;;5004727;28;20426;-55
2021/10/22 09:54:31;;;;;;;6.00;2.17;;;10.80;99.90;;;;;;4995519;28;20517;-53
2021/10/22 09:57:04;;;;;;;5.50;2.40;;;10.80;99.90;;;;;;5012663;28;20899;-54
2021/10/22 09:59:30;;;;;;;7.57;2.23;;;10.80;99.90;;;;;;5015457;28;20874;-53
2021/10/22 10:01:58;;;;;;;4.80;2.00;;;10.90;99.90;;;;;;4992074;28;20426;-56
2021/10/22 10:04:25;;;;;;;7.07;2.60;;;10.80;99.90;;;;;;4995189;28;20846;-53
2021/10/22 10:06:52;;;;;;;6.67;2.10;;;10.70;99.90;;;;;;4996161;28;20408;-56
2021/10/22 10:09:21;;;;;;;6.43;1.63;;;10.80;99.90;;;;;;4986406;28;20409;-55
2021/10/22 10:11:48;;;;;;;12.17;1.83;;;10.90;99.90;;;;;;4976644;28;20805;-52
2021/10/22 10:14:16;;;;;;;8.37;2.63;;;10.90;99.90;;;;;;4976082;28;20513;-55
2021/10/22 10:16:44;;;;;;;7.50;1.90;;;11.00;99.90;;;;;;4976341;28;20427;-55
2021/10/22 10:19:20;;;;;;;4.13;1.77;;;11.00;99.90;;;;;;4975552;28;20436;-55
2021/10/22 10:21:49;;;;;;;3.67;1.53;;;11.10;99.90;;;;;;4976346;28;20388;-57
2021/10/22 10:24:19;;;;;;;4.50;1.80;;;11.10;99.90;;;;;;4976014;28;20460;-56
2021/10/22 10:27:04;;;;;;;4.17;1.53;;;11.20;99.50;;;;;;5005371;28;20484;-55
2021/10/22 10:29:39;;;;;;;3.53;1.40;;;11.10;99.00;;;;;;5014969;28;20497;-54
2021/10/22 10:32:08;;;;;;;4.87;2.27;;;11.20;98.50;;;;;;5014688;28;20389;-54
2021/10/22 10:34:38;;;;;;;3.60;1.70;;;11.30;99.50;;;;;;5013763;28;20465;-55
2021/10/22 10:37:17;;;;;;;6.10;2.30;;;11.50;99.70;;;;;;5014560;28;20403;-55
2021/10/22 10:39:43;;;;;;;5.63;2.30;;;11.60;98.70;;;;;;5014671;28;20849;-56
2021/10/22 10:42:15;;;;;;;3.37;1.60;;;11.80;98.30;;;;;;5014639;28;20435;-54
2021/10/22 10:44:42;;;;;;;5.70;1.77;;;11.70;98.50;;;;;;5014692;28;20265;-56
2021/10/22 10:47:31;;;;;;;5.00;1.87;;;11.90;98.40;;;;;;5014082;28;20410;-55
2021/10/22 10:49:58;;;;;;;6.93;1.73;;;12.70;96.10;;;;;;5008497;28;21011;-52
2021/10/22 10:52:42;;;;;;;5.33;1.73;;;14.20;94.30;;;;;;5014425;28;20490;-55
2021/10/22 10:55:31;;;;;;;4.63;1.67;;;15.10;91.40;;;;;;5014262;28;20456;-54
2021/10/22 10:58:09;;;;;;;4.50;2.20;;;15.40;90.00;;;;;;5014148;28;20882;-56
2021/10/22 11:00:51;;;;;;;5.43;1.70;;;14.90;90.60;;;;;;5014670;28;20491;-55
2021/10/22 11:03:21;;;;;;;4.10;2.20;;;15.20;91.20;;;;;;5014036;28;20390;-53
2021/10/22 11:05:50;;;;;;;2.70;1.60;;;15.80;89.90;;;;;;5013889;28;20459;-57
2021/10/22 11:08:31;;;;;;;3.47;1.20;;;17.60;89.50;;;;;;5014113;28;20414;-55
2021/10/22 11:13:49;;;;;;;3.67;1.77;;;19.00;73.40;;;;;;5014079;28;20542;-53
2021/10/22 11:16:21;;;;;;;5.33;1.57;;;18.60;69.70;;;;;;5014139;28;20453;-51
2021/10/22 11:18:54;;;;;;;4.30;1.60;;;18.70;70.60;;;;;;5013581;28;20398;-56
2021/10/22 11:21:23;;;;;;;3.77;1.20;;;19.90;66.50;;;;;;4988748;28;20504;-56
2021/10/22 11:23:52;;;;;;;2.70;1.63;;;19.20;66.10;;;;;;4992773;28;20418;-55
2021/10/22 11:26:19;;;;;;;6.47;1.90;;;18.80;66.90;;;;;;5005311;28;20745;-58
2021/10/22 11:28:55;;;;;;;4.70;1.80;;;18.90;65.10;;;;;;5015044;28;20399;-58
2021/10/22 11:31:45;;;;;;;3.87;1.50;;;19.90;63.10;;;;;;5013602;28;20452;-52
2021/10/22 11:34:19;;;;;;;4.60;1.53;;;21.40;60.50;;;;;;5028356;23;20477;-52
2021/10/22 11:36:57;;;;;;;5.70;2.40;;;22.20;56.20;;;;;;4982699;28;20529;-54
2021/10/22 11:39:30;;;;;;;4.90;1.50;;;22.20;55.50;;;;;;4994915;28;20388;-53
2021/10/22 11:42:06;;;;;;;5.27;1.73;;;23.90;55.00;;;;;;4995540;28;20384;-56
2021/10/22 11:44:39;;;;;;;3.70;2.17;;;23.10;54.40;;;;;;4996193;28;20420;-54
2021/10/22 11:47:08;;;;;;;2.83;1.50;;;23.50;54.00;;;;;;4993996;28;20419;-52
2021/10/22 11:49:37;;;;;;;5.10;1.60;;;22.70;51.90;;;;;;4993243;28;20985;-56
2021/10/22 11:52:06;;;;;;;3.43;1.70;;;21.30;53.10;;;;;;4994333;28;20407;-54
2021/10/22 11:54:33;;;;;;;2.57;1.60;;;20.80;53.00;;;;;;4994199;28;20872;-51
2021/10/22 11:57:03;;;;;;;4.23;1.50;;;20.70;52.70;;;;;;4994450;28;20791;-55
2021/10/22 11:59:29;;;;;;;3.10;1.47;;;21.00;53.80;;;;;;4994066;28;20450;-56
2021/10/22 12:02:04;;;;;;;3.50;1.70;;;21.20;51.30;;;;;;4994407;28;20798;-56
2021/10/22 12:04:31;;;;;;;3.00;1.73;;;21.20;50.90;;;;;;4994099;28;20459;-53
2021/10/22 12:07:04;;;;;;;2.83;1.20;;;21.40;49.80;;;;;;4986021;28;20491;-55
2021/10/22 12:09:32;;;;;;;1.77;1.50;;;20.70;50.00;;;;;;4975158;28;20862;-56
2021/10/22 12:12:13;;;;;;;3.23;1.50;;;20.70;52.10;;;;;;4974646;28;20443;-51
2021/10/22 12:14:48;;;;;;;3.63;1.43;;;20.40;51.70;;;;;;4974637;28;20460;-56
2021/10/22 12:17:23;;;;;;;2.63;1.50;;;19.80;52.80;;;;;;4974747;28;20392;-55
2021/10/22 12:19:50;;;;;;;5.50;2.00;;;20.20;52.10;;;;;;4990081;28;20736;-54
2021/10/22 12:22:24;;;;;;;4.07;1.83;;;20.10;52.30;;;;;;4994015;28;20759;-56
2021/10/22 12:24:51;;;;;;;2.60;1.43;;;20.00;54.10;;;;;;4994300;28;20431;-51
2021/10/22 12:27:18;;;;;;;3.83;1.30;;;20.50;51.10;;;;;;4994636;28;20419;-56
2021/10/22 12:29:57;;;;;;;5.53;1.77;;;20.70;52.20;;;;;;4994301;28;20458;-51
2021/10/22 12:32:28;;;;;;;3.33;1.53;;;21.40;50.60;;;;;;4993894;28;20841;-56
2021/10/22 12:34:54;;;;;;;4.00;1.50;;;21.70;52.00;;;;;;4993445;28;20816;-53
2021/10/22 12:37:31;;;;;;;2.63;1.33;;;22.00;48.40;;;;;;4993953;28;20458;-55
2021/10/22 12:39:56;;;;;;;2.50;1.33;;;21.50;49.90;;;;;;4994037;28;20427;-55
2021/10/22 12:42:28;;;;;;;2.90;1.50;;;20.70;50.50;;;;;;4993646;28;20462;-55
2021/10/22 12:45:12;;;;;;;6.60;1.80;;;19.90;51.20;;;;;;4993809;28;20563;-55
2021/10/22 12:47:41;;;;;;;2.23;1.10;;;20.10;52.40;;;;;;4993551;28;20403;-53
2021/10/22 12:50:07;;;;;;;4.60;1.87;;;20.00;53.50;;;;;;4993326;28;20414;-56
2021/10/22 12:52:33;;;;;;;3.93;1.77;;;21.20;53.40;;;;;;4995652;28;20407;-55
2021/10/22 12:54:58;;;;;;;3.60;2.00;;;21.30;49.60;;;;;;4997320;28;20459;-56
2021/10/22 12:57:25;;;;;;;4.83;1.70;;;21.60;50.80;;;;;;4997843;28;20164;-50
2021/10/22 12:59:52;;;;;;;4.03;1.80;;;21.70;51.30;;;;;;5012366;28;20657;-54
2021/10/22 13:02:25;;;;;;;3.23;1.50;;;21.20;50.60;;;;;;4997009;28;20407;-55
2021/10/22 13:05:13;;;;;;;4.23;2.43;;;20.50;53.10;;;;;;4996928;28;20432;-55